Time;durP1;ratioP1;P1;durP2;ratioP2;P2;SDS_P1;SDS_P2;PMS_P1;PMS_P2;Temp;Humidity;BMP_temperature;BMP_pressure;BME280_temperature;BME280_humidity;BME280_pressure;Samples;Min_cycle;Max_cycle;Signal;HPM_P1;HPM_P2
2023/05/06 00:00:55;;;;;;;10.27;5.17;;;11.60;99.90;;;;;;5035992;28;20044;-71
2023/05/06 00:03:22;;;;;;;12.20;6.43;;;11.50;99.90;;;;;;5035143;28;20576;-71
2023/05/06 00:05:49;;;;;;;9.10;5.57;;;11.60;99.90;;;;;;5038633;28;20194;-71
2023/05/06 00:08:18;;;;;;;11.30;6.88;;;11.50;99.90;;;;;;5041322;28;20040;-71
2023/05/06 00:10:44;;;;;;;8.88;6.00;;;11.50;99.90;;;;;;5036184;28;20526;-71
2023/05/06 00:13:10;;;;;;;10.23;6.15;;;11.60;99.90;;;;;;5037640;28;20486;-71
2023/05/06 00:15:36;;;;;;;12.90;5.85;;;11.60;99.90;;;;;;5034171;28;20138;-71
2023/05/06 00:18:01;;;;;;;10.27;6.32;;;11.60;99.90;;;;;;5044272;28;20048;-71
2023/05/06 00:20:34;;;;;;;11.23;6.78;;;11.50;99.90;;;;;;5026398;23;20062;-87
2023/05/06 00:23:03;;;;;;;14.20;7.35;;;11.60;99.90;;;;;;5044005;28;20731;-88
2023/05/06 00:25:31;;;;;;;11.00;6.28;;;11.60;99.90;;;;;;5026056;28;20036;-87
2023/05/06 00:28:03;;;;;;;16.05;7.32;;;11.70;99.90;;;;;;5013787;28;20048;-87
2023/05/06 00:30:30;;;;;;;11.25;6.88;;;11.60;99.90;;;;;;5019589;28;20064;-87
2023/05/06 00:32:58;;;;;;;13.38;6.30;;;11.60;99.90;;;;;;5008218;28;20036;-87
2023/05/06 00:35:24;;;;;;;11.38;6.97;;;11.60;99.90;;;;;;5026417;28;20045;-87
2023/05/06 00:38:15;;;;;;;15.17;7.67;;;11.70;99.90;;;;;;5022819;28;20037;-87
2023/05/06 00:40:41;;;;;;;12.10;7.28;;;11.70;99.90;;;;;;5042473;28;20118;-87
2023/05/06 00:43:07;;;;;;;10.43;6.40;;;11.70;99.90;;;;;;5022341;28;20443;-87
2023/05/06 00:48:15;;;;;;;11.77;6.40;;;11.70;99.90;;;;;;5039919;28;20414;-71
2023/05/06 00:50:41;;;;;;;11.32;5.80;;;11.80;99.90;;;;;;5020414;28;20457;-71
2023/05/06 00:53:08;;;;;;;9.07;5.72;;;11.80;99.90;;;;;;4997450;28;20052;-71
2023/05/06 00:55:34;;;;;;;10.52;5.45;;;11.80;99.90;;;;;;4998553;28;20045;-71
2023/05/06 00:58:00;;;;;;;10.20;6.25;;;11.90;99.90;;;;;;4996569;28;20053;-71
2023/05/06 01:00:26;;;;;;;11.90;6.45;;;11.80;99.90;;;;;;4998092;28;20053;-71
2023/05/06 01:02:52;;;;;;;9.90;6.38;;;11.90;99.90;;;;;;5000509;28;20057;-71
2023/05/06 01:05:21;;;;;;;10.27;5.63;;;11.80;99.90;;;;;;4995433;28;20124;-72
2023/05/06 01:08:11;;;;;;;11.48;6.97;;;11.90;99.90;;;;;;5001637;28;20442;-71
2023/05/06 01:10:54;;;;;;;10.52;5.95;;;11.90;99.90;;;;;;5006414;28;20049;-72
2023/05/06 01:13:33;;;;;;;10.05;6.22;;;11.90;99.90;;;;;;5008820;28;20052;-71
2023/05/06 01:16:00;;;;;;;11.82;6.47;;;11.90;99.90;;;;;;4995019;28;20064;-71
2023/05/06 01:18:31;;;;;;;11.02;6.00;;;11.90;99.90;;;;;;5001137;28;20046;-71
2023/05/06 01:21:01;;;;;;;14.05;6.55;;;11.90;99.90;;;;;;5015145;28;20041;-71
2023/05/06 01:23:26;;;;;;;12.60;5.63;;;11.90;99.90;;;;;;5002666;28;20430;-71
2023/05/06 01:25:52;;;;;;;7.68;5.35;;;11.90;99.90;;;;;;4999497;28;20087;-72
2023/05/06 01:28:17;;;;;;;10.90;5.57;;;11.90;99.90;;;;;;4988201;28;20140;-71
2023/05/06 01:31:07;;;;;;;8.67;5.73;;;11.90;99.90;;;;;;5000495;28;20445;-73
2023/05/06 01:33:54;;;;;;;12.90;5.60;;;11.80;99.90;;;;;;5006103;28;20052;-72
2023/05/06 01:36:46;;;;;;;9.05;5.57;;;11.80;99.90;;;;;;4999576;28;20046;-73
2023/05/06 01:39:17;;;;;;;9.45;5.07;;;11.80;99.90;;;;;;5015719;28;20730;-72
2023/05/06 01:41:45;;;;;;;10.48;5.53;;;11.80;99.90;;;;;;5006698;28;20072;-72
2023/05/06 01:44:15;;;;;;;9.60;6.25;;;11.80;99.90;;;;;;4992898;28;20057;-72
2023/05/06 01:46:44;;;;;;;9.07;5.60;;;11.80;99.90;;;;;;4985391;28;20042;-72
2023/05/06 01:49:10;;;;;;;8.50;5.03;;;11.70;99.90;;;;;;5003330;28;20048;-72
2023/05/06 01:51:36;;;;;;;9.48;5.55;;;11.70;99.90;;;;;;5006683;28;20044;-72
2023/05/06 01:54:03;;;;;;;9.27;5.53;;;11.70;99.90;;;;;;5003768;28;20461;-72
2023/05/06 01:56:31;;;;;;;;;;;11.70;99.90;;;;;;4993878;28;20065;-72
2023/05/06 01:58:58;;;;;;;7.45;4.80;;;11.70;99.90;;;;;;5025214;28;20397;-74
2023/05/06 02:01:26;;;;;;;8.88;5.40;;;11.70;99.90;;;;;;5011413;28;20033;-72
2023/05/06 02:03:52;;;;;;;10.47;5.17;;;11.70;99.90;;;;;;5008742;28;20043;-74
2023/05/06 02:06:17;;;;;;;10.80;6.33;;;11.70;99.90;;;;;;4995305;28;20034;-72
2023/05/06 02:08:43;;;;;;;11.77;5.63;;;11.70;99.90;;;;;;4999475;28;20038;-73
2023/05/06 02:11:08;;;;;;;10.10;5.63;;;11.70;99.90;;;;;;5006137;28;20046;-72
2023/05/06 02:13:34;;;;;;;10.80;5.63;;;11.70;99.90;;;;;;5013120;28;20419;-73
2023/05/06 02:16:01;;;;;;;8.35;5.47;;;11.80;99.90;;;;;;4998977;28;20136;-72
2023/05/06 02:18:27;;;;;;;13.20;6.82;;;11.70;99.90;;;;;;4991125;28;20045;-73
2023/05/06 02:20:52;;;;;;;11.20;6.60;;;11.70;99.90;;;;;;5002833;28;20138;-72
2023/05/06 02:23:18;;;;;;;11.87;6.80;;;11.60;99.90;;;;;;5004250;28;20192;-73
2023/05/06 02:25:44;;;;;;;13.85;6.97;;;11.70;99.90;;;;;;4987758;28;20052;-72
2023/05/06 02:28:09;;;;;;;10.60;7.03;;;11.60;99.90;;;;;;4987222;28;20498;-74
2023/05/06 02:30:35;;;;;;;12.10;7.37;;;11.60;99.90;;;;;;5019636;28;20661;-74
2023/05/06 02:33:01;;;;;;;9.65;6.15;;;11.60;99.90;;;;;;5006863;28;20061;-73
2023/05/06 02:35:27;;;;;;;9.45;6.38;;;11.60;99.90;;;;;;5009782;28;20053;-73
2023/05/06 02:37:52;;;;;;;10.93;5.90;;;11.50;99.90;;;;;;5003609;28;20384;-73
2023/05/06 02:40:18;;;;;;;11.73;6.20;;;11.50;99.90;;;;;;4995375;28;20061;-73
2023/05/06 02:42:44;;;;;;;9.67;5.60;;;11.50;99.90;;;;;;4985969;28;20091;-72
2023/05/06 02:45:12;;;;;;;13.27;7.00;;;11.50;99.90;;;;;;4995012;28;20052;-72
2023/05/06 02:47:37;;;;;;;11.23;5.55;;;11.40;99.90;;;;;;5006426;28;20072;-72
2023/05/06 02:50:03;;;;;;;9.57;5.60;;;11.40;99.90;;;;;;5005268;28;20096;-72
2023/05/06 02:52:29;;;;;;;11.93;5.80;;;11.30;99.90;;;;;;5011199;28;20049;-73
2023/05/06 02:54:55;;;;;;;10.70;5.47;;;11.30;99.90;;;;;;5005052;28;20033;-72
2023/05/06 02:57:20;;;;;;;9.90;5.57;;;11.30;99.90;;;;;;5005627;28;20174;-72
2023/05/06 02:59:46;;;;;;;10.50;6.27;;;11.30;99.90;;;;;;5001006;28;20045;-72
2023/05/06 03:02:11;;;;;;;10.30;5.80;;;11.30;99.90;;;;;;5000771;28;20259;-73
2023/05/06 03:04:37;;;;;;;10.17;5.90;;;11.20;99.90;;;;;;5004471;28;20038;-72
2023/05/06 03:07:02;;;;;;;11.03;6.53;;;11.20;99.90;;;;;;5003007;28;20403;-72
2023/05/06 03:09:28;;;;;;;10.60;5.83;;;11.20;99.90;;;;;;5004986;28;20052;-73
2023/05/06 03:11:55;;;;;;;11.13;6.30;;;11.10;99.90;;;;;;5010608;28;20045;-72
2023/05/06 03:14:23;;;;;;;10.73;6.30;;;11.10;99.90;;;;;;4988105;28;20175;-72
2023/05/06 03:16:49;;;;;;;10.35;5.55;;;11.00;99.90;;;;;;5007330;28;20050;-72
2023/05/06 03:19:14;;;;;;;8.80;5.80;;;11.00;99.90;;;;;;5009844;28;20533;-73
2023/05/06 03:21:43;;;;;;;11.97;5.97;;;10.90;99.90;;;;;;5002540;28;20042;-72
2023/05/06 03:24:09;;;;;;;10.20;5.47;;;10.90;99.90;;;;;;5006508;28;20246;-72
2023/05/06 03:26:34;;;;;;;9.63;5.13;;;10.90;99.90;;;;;;5013929;28;20240;-72
2023/05/06 03:29:00;;;;;;;10.90;6.37;;;10.90;99.90;;;;;;5026379;28;20317;-72
2023/05/06 03:31:25;;;;;;;9.10;5.70;;;10.90;99.90;;;;;;5000678;28;20037;-72
2023/05/06 03:33:51;;;;;;;11.93;6.67;;;10.80;99.90;;;;;;5008268;28;20048;-72
2023/05/06 03:36:17;;;;;;;13.30;6.47;;;10.80;99.90;;;;;;5004151;28;20041;-73
2023/05/06 03:38:42;;;;;;;11.60;7.17;;;10.80;99.90;;;;;;4999113;28;20038;-71
2023/05/06 03:41:08;;;;;;;11.87;7.20;;;10.80;99.90;;;;;;5009015;28;20733;-71
2023/05/06 03:43:36;;;;;;;12.43;6.88;;;10.70;99.90;;;;;;5003561;28;20056;-73
2023/05/06 03:46:02;;;;;;;11.48;6.25;;;10.80;99.90;;;;;;5002454;28;20048;-72
2023/05/06 03:48:28;;;;;;;10.35;6.15;;;10.70;99.90;;;;;;5008406;28;20041;-73
2023/05/06 03:50:54;;;;;;;9.47;5.67;;;10.70;99.90;;;;;;5014333;28;20119;-71
2023/05/06 03:53:19;;;;;;;9.57;5.87;;;10.70;99.90;;;;;;5002548;28;20116;-73
2023/05/06 03:55:45;;;;;;;12.27;6.67;;;10.70;99.90;;;;;;5005934;28;20057;-72
2023/05/06 03:58:11;;;;;;;11.27;6.33;;;10.70;99.90;;;;;;5007999;28;20525;-72
2023/05/06 04:00:38;;;;;;;13.40;6.57;;;10.70;99.90;;;;;;5013245;28;20064;-71
2023/05/06 04:03:04;;;;;;;11.82;6.82;;;10.70;99.90;;;;;;4988406;28;20132;-72
2023/05/06 04:05:30;;;;;;;10.13;5.43;;;10.80;99.90;;;;;;5002454;28;20542;-72
2023/05/06 04:07:57;;;;;;;12.00;5.90;;;10.80;99.90;;;;;;5005787;28;20537;-71
2023/05/06 04:10:23;;;;;;;12.70;6.38;;;10.70;99.90;;;;;;4998190;28;20091;-72
2023/05/06 04:12:49;;;;;;;10.43;6.13;;;10.80;99.90;;;;;;5002464;28;20580;-75
2023/05/06 04:15:14;;;;;;;12.63;6.60;;;10.70;99.90;;;;;;5023841;28;20049;-72
2023/05/06 04:17:43;;;;;;;8.43;4.90;;;10.70;99.90;;;;;;5000297;28;20052;-73
2023/05/06 04:20:10;;;;;;;10.52;6.18;;;10.80;99.90;;;;;;5021898;28;20049;-72
2023/05/06 04:22:37;;;;;;;11.45;5.75;;;10.80;99.90;;;;;;5022402;28;20041;-72
2023/05/06 04:25:03;;;;;;;10.20;6.50;;;10.70;99.90;;;;;;5009667;28;20376;-72
2023/05/06 04:27:30;;;;;;;9.00;5.65;;;10.80;99.90;;;;;;5007982;28;20054;-72
2023/05/06 04:29:56;;;;;;;9.13;5.90;;;10.80;99.90;;;;;;5010322;28;20236;-73
2023/05/06 04:32:24;;;;;;;9.35;5.82;;;10.90;99.90;;;;;;5007181;28;20519;-72
2023/05/06 04:34:50;;;;;;;9.77;5.57;;;10.90;99.90;;;;;;5022621;28;20132;-72
2023/05/06 04:37:18;;;;;;;9.88;5.88;;;11.00;99.90;;;;;;5002774;28;20053;-72
2023/05/06 04:39:45;;;;;;;10.55;5.88;;;10.90;99.90;;;;;;5009135;28;20396;-71
2023/05/06 04:42:12;;;;;;;10.13;5.53;;;11.00;99.90;;;;;;5003289;28;20058;-73
2023/05/06 04:44:48;;;;;;;11.40;6.20;;;11.00;99.90;;;;;;4979647;28;20079;-72
2023/05/06 04:47:14;;;;;;;11.48;6.50;;;11.00;99.90;;;;;;5001199;28;20037;-72
2023/05/06 04:49:40;;;;;;;10.57;7.05;;;11.00;99.90;;;;;;5003172;28;20499;-71
2023/05/06 04:52:06;;;;;;;10.50;6.22;;;11.10;99.90;;;;;;5004216;28;20406;-71
2023/05/06 04:54:32;;;;;;;9.93;5.80;;;11.10;99.90;;;;;;5009467;28;20037;-72
2023/05/06 04:56:58;;;;;;;9.33;6.40;;;11.20;99.90;;;;;;5009381;28;20065;-72
2023/05/06 04:59:23;;;;;;;11.13;6.40;;;11.10;99.90;;;;;;5005907;28;20037;-73
2023/05/06 05:01:49;;;;;;;14.00;5.90;;;11.10;99.90;;;;;;4990713;28;20053;-72
2023/05/06 05:04:14;;;;;;;11.17;6.33;;;11.20;99.90;;;;;;5005448;28;20095;-72
2023/05/06 05:06:40;;;;;;;11.83;6.50;;;11.20;99.90;;;;;;5027993;28;20025;-72
2023/05/06 05:09:06;;;;;;;10.53;6.40;;;11.20;99.90;;;;;;5007105;28;20049;-72
2023/05/06 05:11:31;;;;;;;11.13;6.00;;;11.20;99.90;;;;;;5001710;28;20819;-73
2023/05/06 05:13:57;;;;;;;11.47;6.07;;;11.30;99.90;;;;;;5005392;28;20045;-72
2023/05/06 05:16:22;;;;;;;10.00;5.93;;;11.30;99.90;;;;;;5011748;28;20098;-72
2023/05/06 05:18:48;;;;;;;10.80;6.43;;;11.30;99.90;;;;;;5017087;28;20033;-72
2023/05/06 05:21:14;;;;;;;10.20;5.97;;;11.40;99.90;;;;;;5012726;28;20294;-72
2023/05/06 05:23:40;;;;;;;11.60;6.20;;;11.40;99.90;;;;;;5002001;28;20052;-72
2023/05/06 05:26:06;;;;;;;11.63;6.90;;;11.40;99.90;;;;;;5000386;28;20045;-73
2023/05/06 05:28:31;;;;;;;10.37;6.07;;;11.40;99.90;;;;;;5002762;28;20120;-72
2023/05/06 05:31:02;;;;;;;9.60;6.20;;;11.40;99.90;;;;;;5005077;28;20282;-73
2023/05/06 05:33:28;;;;;;;12.43;5.72;;;11.50;99.90;;;;;;5007528;28;20056;-72
2023/05/06 05:35:54;;;;;;;11.50;6.32;;;11.50;99.90;;;;;;5005862;28;20041;-72
2023/05/06 05:38:19;;;;;;;13.27;7.30;;;11.50;99.90;;;;;;5002879;28;20067;-73
2023/05/06 05:40:45;;;;;;;10.85;6.60;;;11.50;99.90;;;;;;5022376;28;20298;-72
2023/05/06 05:43:11;;;;;;;13.63;7.15;;;11.50;99.90;;;;;;5005318;28;20286;-72
2023/05/06 05:45:37;;;;;;;11.37;6.50;;;11.50;99.90;;;;;;5017397;28;20503;-73
2023/05/06 05:48:02;;;;;;;11.13;7.07;;;11.60;99.90;;;;;;5020879;28;20045;-72
2023/05/06 05:50:28;;;;;;;10.75;6.47;;;11.60;99.90;;;;;;5005937;28;20309;-73
2023/05/06 05:52:54;;;;;;;12.07;6.70;;;11.60;99.90;;;;;;5003652;28;21698;-74
2023/05/06 05:55:20;;;;;;;11.13;6.43;;;11.60;99.90;;;;;;5004895;28;20473;-73
2023/05/06 05:57:46;;;;;;;10.75;6.00;;;11.70;99.90;;;;;;5021064;28;20042;-72
2023/05/06 06:00:12;;;;;;;11.83;6.80;;;11.60;99.90;;;;;;5022688;28;20402;-72
2023/05/06 06:02:37;;;;;;;9.90;6.60;;;11.70;99.90;;;;;;5005322;28;20317;-72
2023/05/06 06:05:03;;;;;;;11.47;6.17;;;11.70;99.90;;;;;;4983322;28;20395;-73
2023/05/06 06:07:29;;;;;;;14.18;7.38;;;11.70;99.90;;;;;;4999642;28;20077;-72
2023/05/06 06:09:55;;;;;;;11.63;6.83;;;11.70;99.90;;;;;;4991726;28;20419;-73
2023/05/06 06:12:21;;;;;;;10.17;6.70;;;11.70;99.90;;;;;;5011666;28;20045;-72
2023/05/06 06:14:47;;;;;;;12.38;7.38;;;11.80;99.90;;;;;;5005555;28;20041;-72
2023/05/06 06:17:16;;;;;;;11.43;6.03;;;11.80;99.90;;;;;;4988406;28;20121;-72
2023/05/06 06:19:43;;;;;;;14.32;7.13;;;11.80;99.90;;;;;;5016467;22;20088;-75
2023/05/06 06:22:09;;;;;;;11.60;6.75;;;11.90;99.90;;;;;;5023677;28;20949;-75
2023/05/06 06:24:35;;;;;;;11.13;6.28;;;11.90;99.90;;;;;;4977961;28;20057;-75
2023/05/06 06:27:01;;;;;;;11.23;6.75;;;11.90;99.90;;;;;;4988510;28;20111;-75
2023/05/06 06:29:27;;;;;;;13.00;7.97;;;12.00;99.90;;;;;;5008896;28;20501;-75
2023/05/06 06:31:54;;;;;;;11.40;7.10;;;12.00;99.90;;;;;;5002679;28;20061;-75
2023/05/06 06:34:20;;;;;;;12.88;7.15;;;12.10;99.90;;;;;;4988974;28;20033;-76
2023/05/06 06:36:46;;;;;;;11.73;7.10;;;12.10;99.90;;;;;;5013399;28;20041;-76
2023/05/06 06:39:12;;;;;;;11.52;6.97;;;12.10;99.90;;;;;;5010156;28;20080;-75
2023/05/06 06:41:38;;;;;;;12.95;7.50;;;12.10;99.90;;;;;;5013827;28;20570;-75
2023/05/06 06:44:04;;;;;;;14.97;7.33;;;12.20;99.90;;;;;;5015280;28;20125;-75
2023/05/06 06:46:33;;;;;;;12.20;7.30;;;12.20;99.90;;;;;;5013713;28;20537;-75
2023/05/06 06:49:02;;;;;;;13.18;7.07;;;12.20;99.90;;;;;;5002503;28;20045;-75
2023/05/06 06:51:27;;;;;;;11.55;6.63;;;12.30;99.90;;;;;;5003880;28;20045;-75
2023/05/06 06:53:59;;;;;;;13.07;7.53;;;12.30;99.90;;;;;;4987915;28;20052;-76
2023/05/06 06:56:25;;;;;;;11.68;7.05;;;12.40;99.90;;;;;;5022654;28;20351;-76
2023/05/06 06:58:51;;;;;;;12.30;7.10;;;12.40;99.90;;;;;;5011620;28;20438;-75
2023/05/06 07:01:19;;;;;;;14.07;7.72;;;12.40;99.90;;;;;;5008102;28;20879;-75
2023/05/06 07:03:45;;;;;;;13.88;8.65;;;12.50;99.90;;;;;;5032191;28;20047;-75
2023/05/06 07:06:11;;;;;;;15.15;7.65;;;12.50;99.90;;;;;;5007459;28;20053;-75
2023/05/06 07:08:36;;;;;;;14.70;7.40;;;12.50;99.90;;;;;;5009869;28;20048;-76
2023/05/06 07:11:05;;;;;;;12.60;7.10;;;12.60;99.90;;;;;;5012637;28;20045;-76
2023/05/06 07:13:31;;;;;;;15.02;8.15;;;12.60;99.90;;;;;;5013161;28;20545;-75
2023/05/06 07:15:59;;;;;;;16.00;8.15;;;12.60;99.90;;;;;;5009523;28;20487;-75
2023/05/06 07:18:25;;;;;;;13.63;8.00;;;12.70;99.90;;;;;;5011323;28;20052;-75
2023/05/06 07:20:54;;;;;;;13.73;7.63;;;12.70;99.90;;;;;;5014449;28;20426;-76
2023/05/06 07:23:19;;;;;;;14.50;6.95;;;12.70;99.90;;;;;;5002082;28;20042;-76
2023/05/06 07:25:45;;;;;;;16.50;8.07;;;12.80;99.90;;;;;;5010787;28;20052;-76
2023/05/06 07:28:11;;;;;;;13.00;7.57;;;12.80;99.90;;;;;;5009818;28;20053;-75
2023/05/06 07:30:37;;;;;;;14.00;8.10;;;12.90;99.90;;;;;;4995575;28;20944;-75
2023/05/06 07:33:03;;;;;;;;;;;13.00;99.90;;;;;;5004713;28;20041;-76
2023/05/06 07:35:28;;;;;;;12.68;6.88;;;13.10;99.90;;;;;;5010220;28;19924;-75
2023/05/06 07:37:54;;;;;;;12.73;7.20;;;13.20;99.90;;;;;;5013115;28;20038;-78
2023/05/06 07:40:20;;;;;;;12.77;6.67;;;13.20;99.90;;;;;;4998554;28;20183;-76
2023/05/06 07:42:45;;;;;;;10.57;6.35;;;13.30;99.90;;;;;;5010353;28;20327;-75
2023/05/06 07:45:11;;;;;;;10.47;5.83;;;13.40;99.90;;;;;;5008759;28;21540;-75
2023/05/06 07:47:37;;;;;;;12.97;6.50;;;13.50;99.90;;;;;;5002888;28;20888;-77
2023/05/06 07:50:04;;;;;;;11.43;6.47;;;13.60;99.90;;;;;;5019589;28;20037;-78
2023/05/06 07:52:30;;;;;;;13.00;6.43;;;13.70;99.90;;;;;;5004425;28;20061;-74
2023/05/06 07:54:56;;;;;;;10.90;5.57;;;13.80;99.90;;;;;;5007146;28;20045;-74
2023/05/06 07:57:21;;;;;;;12.23;5.53;;;13.90;99.90;;;;;;5006037;28;20247;-75
2023/05/06 07:59:48;;;;;;;12.67;6.27;;;14.00;99.90;;;;;;5000368;28;20053;-74
2023/05/06 08:02:14;;;;;;;10.82;5.88;;;14.00;99.90;;;;;;4991701;28;20201;-75
2023/05/06 08:04:40;;;;;;;10.25;5.78;;;14.10;99.90;;;;;;5001376;28;20038;-74
2023/05/06 08:07:06;;;;;;;8.65;4.95;;;14.20;99.90;;;;;;5002821;28;20045;-74
2023/05/06 08:09:32;;;;;;;12.13;6.28;;;14.20;99.90;;;;;;5019754;28;20557;-74
2023/05/06 08:11:57;;;;;;;9.90;6.20;;;14.30;99.90;;;;;;5011532;28;20111;-74
2023/05/06 08:14:26;;;;;;;9.65;5.45;;;14.40;99.90;;;;;;5002258;28;20291;-74
2023/05/06 08:16:52;;;;;;;12.23;6.50;;;14.50;99.90;;;;;;5002229;28;20041;-74
2023/05/06 08:19:18;;;;;;;11.93;6.75;;;14.60;99.90;;;;;;4999731;28;20034;-74
2023/05/06 08:21:43;;;;;;;13.77;6.70;;;14.60;99.90;;;;;;5025383;28;20052;-74
2023/05/06 08:24:12;;;;;;;15.70;7.00;;;14.70;99.90;;;;;;4991818;28;20790;-74
2023/05/06 08:26:38;;;;;;;10.80;6.70;;;14.80;99.90;;;;;;5002736;28;20399;-74
2023/05/06 08:29:04;;;;;;;11.55;6.63;;;14.80;99.90;;;;;;5006762;28;20037;-75
2023/05/06 08:31:29;;;;;;;12.13;6.95;;;14.90;99.90;;;;;;5009715;28;20404;-74
2023/05/06 08:33:55;;;;;;;10.93;6.47;;;15.00;99.90;;;;;;5014579;28;20037;-74
2023/05/06 08:36:21;;;;;;;13.17;6.37;;;15.10;99.90;;;;;;5005049;28;20387;-74
2023/05/06 08:38:49;;;;;;;11.75;6.70;;;15.20;99.90;;;;;;5013484;28;20779;-74
2023/05/06 08:41:18;;;;;;;10.90;6.40;;;15.30;99.90;;;;;;5001322;28;20092;-74
2023/05/06 08:43:45;;;;;;;12.43;6.38;;;15.30;99.90;;;;;;5009406;28;20429;-74
2023/05/06 08:46:12;;;;;;;13.68;6.65;;;15.40;99.90;;;;;;5000583;28;20049;-74
2023/05/06 08:48:38;;;;;;;11.82;6.22;;;15.40;99.90;;;;;;5006762;28;20161;-74
2023/05/06 08:51:04;;;;;;;8.90;6.10;;;15.50;99.90;;;;;;4986409;28;20537;-74
2023/05/06 08:53:32;;;;;;;10.82;6.13;;;15.60;99.90;;;;;;5007651;28;20049;-74
2023/05/06 08:56:03;;;;;;;11.00;6.45;;;15.70;99.90;;;;;;5008024;28;20485;-74
2023/05/06 08:58:34;;;;;;;10.77;5.57;;;15.70;99.90;;;;;;5008118;28;20406;-74
2023/05/06 09:01:01;;;;;;;10.40;5.75;;;15.80;99.90;;;;;;5006734;28;20056;-74
2023/05/06 09:03:27;;;;;;;10.68;6.13;;;15.90;99.90;;;;;;5028212;28;20414;-75
2023/05/06 09:05:53;;;;;;;10.45;5.88;;;16.00;99.90;;;;;;5024516;28;20040;-74
2023/05/06 09:08:21;;;;;;;10.70;5.90;;;16.10;99.90;;;;;;5016738;28;20037;-74
2023/05/06 09:10:47;;;;;;;10.02;5.60;;;16.20;99.90;;;;;;5005680;28;20120;-74
2023/05/06 09:13:14;;;;;;;8.73;5.30;;;16.30;99.90;;;;;;5006789;28;20522;-74
2023/05/06 09:15:52;;;;;;;9.13;5.97;;;16.40;99.90;;;;;;5002777;28;20046;-75
2023/05/06 09:18:17;;;;;;;8.48;5.30;;;16.40;99.90;;;;;;5001754;28;20044;-74
2023/05/06 09:20:45;;;;;;;10.13;5.40;;;16.50;99.90;;;;;;5021078;28;20098;-74
2023/05/06 09:23:13;;;;;;;10.00;5.45;;;16.50;99.90;;;;;;5004193;28;20048;-74
2023/05/06 09:25:38;;;;;;;9.93;6.10;;;16.60;99.90;;;;;;5004164;28;20563;-74
2023/05/06 09:28:08;;;;;;;12.85;6.60;;;16.70;99.90;;;;;;5007514;28;20120;-74
2023/05/06 09:30:41;;;;;;;10.48;5.93;;;16.70;99.90;;;;;;4993287;28;20072;-74
2023/05/06 09:33:07;;;;;;;11.77;5.30;;;16.80;99.90;;;;;;5021981;28;20045;-74
2023/05/06 09:35:41;;;;;;;8.55;4.95;;;16.90;99.90;;;;;;5008349;28;20099;-74
2023/05/06 09:38:08;;;;;;;11.60;6.20;;;17.00;99.90;;;;;;5006024;28;20496;-74
2023/05/06 09:40:34;;;;;;;12.70;6.57;;;17.10;99.90;;;;;;5000979;28;20041;-74
2023/05/06 09:43:00;;;;;;;10.82;5.90;;;17.20;99.90;;;;;;5007083;28;20387;-74
2023/05/06 09:45:27;;;;;;;9.50;5.68;;;17.40;99.90;;;;;;4996637;28;20034;-74
2023/05/06 09:47:53;;;;;;;8.65;5.60;;;17.50;99.90;;;;;;5006288;28;20087;-74
2023/05/06 09:50:21;;;;;;;10.27;6.55;;;17.70;99.90;;;;;;5000747;28;20152;-74
2023/05/06 09:52:48;;;;;;;13.70;6.70;;;17.80;99.90;;;;;;5000144;28;20132;-74
2023/05/06 09:55:14;;;;;;;11.25;6.13;;;17.90;99.90;;;;;;5008065;28;20432;-73
2023/05/06 09:57:41;;;;;;;12.18;5.93;;;17.80;99.90;;;;;;5008749;28;20049;-73
2023/05/06 10:00:13;;;;;;;10.50;5.57;;;17.70;99.90;;;;;;5003923;28;20045;-74
2023/05/06 10:02:46;;;;;;;10.35;5.35;;;17.60;99.90;;;;;;5000625;28;20038;-73
2023/05/06 10:05:12;;;;;;;7.85;5.40;;;17.50;99.90;;;;;;4994415;28;20037;-73
2023/05/06 10:07:40;;;;;;;9.30;5.43;;;17.30;99.90;;;;;;5023966;28;20040;-73
2023/05/06 10:10:08;;;;;;;10.45;5.03;;;17.30;99.90;;;;;;5006211;28;20041;-73
2023/05/06 10:12:38;;;;;;;9.32;5.63;;;17.20;99.90;;;;;;5026318;28;20033;-73
2023/05/06 10:15:07;;;;;;;10.15;5.60;;;17.20;99.90;;;;;;5024995;28;20507;-74
2023/05/06 10:17:40;;;;;;;8.57;5.18;;;17.20;99.90;;;;;;4989135;28;20049;-74
2023/05/06 10:20:08;;;;;;;10.88;5.60;;;17.20;99.90;;;;;;5006577;28;20045;-73
2023/05/06 10:22:48;;;;;;;13.52;5.63;;;17.30;99.90;;;;;;5013620;28;20037;-74
2023/05/06 10:25:34;;;;;;;12.57;6.00;;;17.30;99.90;;;;;;5008545;28;20452;-74
2023/05/06 10:28:08;;;;;;;14.43;6.00;;;17.40;99.90;;;;;;5007785;28;20093;-74
2023/05/06 10:30:34;;;;;;;10.75;5.20;;;17.40;99.90;;;;;;5017016;28;20103;-73
2023/05/06 10:33:08;;;;;;;9.75;4.90;;;17.50;99.90;;;;;;5023914;28;20508;-74
2023/05/06 10:35:43;;;;;;;9.93;5.88;;;17.40;99.90;;;;;;5003792;28;20061;-74
2023/05/06 10:38:34;;;;;;;12.63;5.25;;;17.40;99.90;;;;;;5009272;28;20042;-74
2023/05/06 10:41:01;;;;;;;8.57;5.63;;;17.30;99.90;;;;;;5007960;28;20057;-74
2023/05/06 10:43:29;;;;;;;8.68;4.90;;;17.30;99.90;;;;;;5005690;28;20045;-74
2023/05/06 10:46:08;;;;;;;11.65;5.47;;;17.20;99.90;;;;;;4988068;28;20437;-74
2023/05/06 10:48:36;;;;;;;10.73;4.93;;;17.20;99.90;;;;;;5007228;28;20065;-74
2023/05/06 10:51:22;;;;;;;10.82;5.03;;;17.10;99.90;;;;;;5008503;28;20487;-74
2023/05/06 10:54:01;;;;;;;8.95;5.22;;;16.90;99.90;;;;;;5011278;28;20396;-74
2023/05/06 10:56:32;;;;;;;11.70;5.88;;;16.90;99.90;;;;;;4986653;28;20043;-74
2023/05/06 10:59:08;;;;;;;12.30;6.38;;;16.90;99.90;;;;;;4990776;28;20041;-74
2023/05/06 11:01:35;;;;;;;12.23;6.93;;;16.80;99.90;;;;;;4996203;28;20041;-74
2023/05/06 11:04:05;;;;;;;11.45;6.57;;;16.90;99.90;;;;;;5007338;28;20043;-74
2023/05/06 11:06:43;;;;;;;10.98;6.78;;;16.80;99.90;;;;;;5007884;28;20452;-74
2023/05/06 11:09:20;;;;;;;11.85;6.80;;;16.70;99.90;;;;;;5027506;28;20042;-74
2023/05/06 11:12:06;;;;;;;;;;;16.60;99.90;;;;;;4986039;28;20159;-74
2023/05/06 11:14:34;;;;;;;12.20;5.65;;;16.50;99.90;;;;;;5007169;28;20007;-74
2023/05/06 11:17:08;;;;;;;9.82;4.78;;;16.50;99.90;;;;;;5003826;28;20056;-74
2023/05/06 11:19:37;;;;;;;12.52;5.18;;;16.40;99.90;;;;;;5002895;28;20033;-76
2023/05/06 11:22:05;;;;;;;7.10;4.20;;;16.40;99.90;;;;;;4976413;28;20436;-74
2023/05/06 11:24:42;;;;;;;8.80;4.15;;;16.30;99.90;;;;;;4982929;28;20118;-75
2023/05/06 11:27:08;;;;;;;;;;;16.30;99.90;;;;;;5013465;28;20084;-74
2023/05/06 11:29:35;;;;;;;6.55;4.05;;;16.20;99.90;;;;;;5012864;28;20351;-75
2023/05/06 11:32:00;;;;;;;6.22;3.72;;;16.20;99.90;;;;;;5019012;28;20040;-75
2023/05/06 11:34:30;;;;;;;7.70;4.32;;;16.20;99.90;;;;;;5002217;28;20376;-74
2023/05/06 11:37:05;;;;;;;8.05;4.18;;;16.20;99.90;;;;;;5013127;28;20277;-75
2023/05/06 11:39:36;;;;;;;8.05;5.13;;;16.20;99.90;;;;;;4988661;28;20060;-74
2023/05/06 11:42:05;;;;;;;11.48;5.75;;;16.20;99.90;;;;;;4983127;28;20041;-76
2023/05/06 11:44:36;;;;;;;11.32;5.68;;;16.20;99.90;;;;;;5011331;28;20114;-76
2023/05/06 11:47:04;;;;;;;11.20;6.18;;;16.10;99.90;;;;;;4994134;28;20103;-76
2023/05/06 11:49:41;;;;;;;10.55;5.97;;;16.10;99.90;;;;;;5002089;28;20095;-76
2023/05/06 11:52:08;;;;;;;11.13;6.05;;;16.00;99.90;;;;;;5002003;28;20080;-76
2023/05/06 11:54:37;;;;;;;12.15;6.18;;;16.00;99.90;;;;;;4996100;28;20065;-75
2023/05/06 11:57:03;;;;;;;13.07;5.95;;;16.00;99.90;;;;;;5017225;28;20029;-75
2023/05/06 11:59:32;;;;;;;12.40;5.50;;;15.90;99.90;;;;;;5007556;28;20038;-75
2023/05/06 12:02:00;;;;;;;7.05;4.05;;;15.90;99.90;;;;;;5002442;28;20470;-76
2023/05/06 12:04:26;;;;;;;6.80;4.00;;;16.00;99.90;;;;;;4980787;28;20332;-76
2023/05/06 12:06:54;;;;;;;8.80;3.28;;;15.90;99.90;;;;;;4999362;28;20041;-74
2023/05/06 12:09:21;;;;;;;5.00;2.78;;;15.80;99.90;;;;;;5009569;28;20053;-75
2023/05/06 12:11:47;;;;;;;4.78;2.53;;;15.90;99.90;;;;;;5006641;28;20099;-75
2023/05/06 12:14:13;;;;;;;6.20;2.60;;;16.00;99.90;;;;;;5010445;28;20045;-75
2023/05/06 12:16:40;;;;;;;6.07;2.50;;;16.10;99.90;;;;;;5001656;28;20524;-74
2023/05/06 12:19:06;;;;;;;4.63;2.58;;;16.20;99.90;;;;;;5019210;28;20191;-76
2023/05/06 12:21:37;;;;;;;5.68;2.67;;;16.10;99.90;;;;;;5038337;23;20051;-70
2023/05/06 12:24:04;;;;;;;6.28;2.83;;;16.10;99.90;;;;;;5021251;28;20370;-70
2023/05/06 12:26:44;;;;;;;5.07;2.65;;;16.10;99.90;;;;;;5036741;28;20181;-70
2023/05/06 12:29:12;;;;;;;5.10;2.67;;;16.20;99.90;;;;;;5021887;28;20043;-70
2023/05/06 12:31:38;;;;;;;3.97;2.53;;;16.10;99.90;;;;;;5014372;28;20493;-70
2023/05/06 12:34:04;;;;;;;4.22;2.20;;;16.10;99.90;;;;;;5023627;28;20052;-70
2023/05/06 12:36:31;;;;;;;5.43;2.15;;;16.00;99.90;;;;;;5016743;28;20073;-70
2023/05/06 12:38:58;;;;;;;4.75;1.83;;;16.00;99.90;;;;;;5041168;28;20197;-70
2023/05/06 12:41:36;;;;;;;3.78;1.60;;;16.10;99.90;;;;;;5003925;28;20076;-70
2023/05/06 12:44:01;;;;;;;2.53;1.50;;;16.10;99.90;;;;;;5026341;28;20053;-70
2023/05/06 12:46:27;;;;;;;4.78;1.77;;;16.20;99.90;;;;;;5037217;28;20056;-70